Ty Lotus — DSNU7 — position and weather

sailwx.info

Track history (hours):
 
Tides and Currents Weather Stations Pressure Air Temp Water Temp Dewpoint Dewpoint Depression Visibility Wind Speed Wind Dir Waves Ship Positions

Ty Lotus

Last reported at 2015-Mar-24 04:09 UTC. Time now 2015-Mar-30 01:06 UTC.
Position N 36°42' E 122°22'.

Length 82 m; draft 3.5 m.

Type: Cargo ship. MMSI: 440324000.

Date/timePositionNaut miles runAvg speedWind from/ knotsBaromVisibWave heightAir tempDewpointWater temp
2015-Mar-24 04:09N 36°42' E 122°22'610.0
2015-Mar-24 03:33N 36°44' E 122°29'10 9.8
2015-Mar-24 02:33N 36°51' E 122°38'1010.2
2015-Mar-24 01:33N 37°00' E 122°42'10 9.7
2015-Mar-24 00:29N 37°10' E 122°46'8 8.3
2015-Mar-23 23:32N 37°18' E 122°47'10 9.7
2015-Mar-23 22:28N 37°28' E 122°44'1110.8
2015-Mar-23 21:29N 37°36' E 122°35'1112.0
2015-Mar-23 20:33N 37°43' E 122°24'12011.8
2015-Mar-23 10:25N 38°39' E 120°09'1311.5
2015-Mar-23 09:17N 38°41' E 119°53'811.0
2015-Mar-23 08:33N 38°42' E 119°42'8411.2
2015-Mar-23 01:04N 38°56' E 117°57'612.0
2015-Mar-23 00:33N 38°58' E 117°49'4 3.3
2015-Mar-22 23:30N 38°59' E 117°45'0 0.0
2015-Mar-22 20:18N 38°59' E 117°45'0 0.0
2015-Mar-22 16:06N 38°59' E 117°45'0 0.0
2015-Mar-22 14:30N 38°59' E 117°45'0 0.0
2015-Mar-22 13:24N 38°59' E 117°45'0 0.0
2015-Mar-22 12:18N 38°59' E 117°45'0 0.0
2015-Mar-22 11:30N 38°59' E 117°45'0 0.0
2015-Mar-22 10:22N 38°59' E 117°45'0 0.0
2015-Mar-22 09:22N 38°59' E 117°45'0 0.0
2015-Mar-22 08:22N 38°59' E 117°45'0 0.0
2015-Mar-22 07:28N 38°59' E 117°45'1 1.0
2015-Mar-22 06:33N 38°59' E 117°46'13 3.1
2015-Mar-22 02:22N 38°58' E 118°02'  
2015-Mar-14 05:32N 35°00' E 139°31'1111.2
2015-Mar-14 04:33N 35°07' E 139°41'  
Track history (hours):
 
Tides and Currents Weather Stations Pressure Air Temp Water Temp Dewpoint Dewpoint Depression Visibility Wind Speed Wind Dir Waves Ship Positions

Ty Lotus

Last reported at 2015-Mar-24 04:09 UTC. Time now 2015-Mar-30 01:06 UTC.
Position N 36°42' E 122°22'.

Length 82 m; draft 3.5 m.

Type: Cargo ship. MMSI: 440324000.

Date/timePositionNaut miles runAvg speedWind from/ knotsBaromVisibWave heightAir tempDewpointWater temp
2015-Mar-24 04:09N 36°42' E 122°22'610.0
2015-Mar-24 03:33N 36°44' E 122°29'10 9.8
2015-Mar-24 02:33N 36°51' E 122°38'1010.2
2015-Mar-24 01:33N 37°00' E 122°42'10 9.7
2015-Mar-24 00:29N 37°10' E 122°46'8 8.3
2015-Mar-23 23:32N 37°18' E 122°47'10 9.7
2015-Mar-23 22:28N 37°28' E 122°44'1110.8
2015-Mar-23 21:29N 37°36' E 122°35'1112.0
2015-Mar-23 20:33N 37°43' E 122°24'12011.8
2015-Mar-23 10:25N 38°39' E 120°09'1311.5
2015-Mar-23 09:17N 38°41' E 119°53'811.0
2015-Mar-23 08:33N 38°42' E 119°42'8411.2
2015-Mar-23 01:04N 38°56' E 117°57'612.0
2015-Mar-23 00:33N 38°58' E 117°49'4 3.3
2015-Mar-22 23:30N 38°59' E 117°45'0 0.0
2015-Mar-22 20:18N 38°59' E 117°45'0 0.0
2015-Mar-22 16:06N 38°59' E 117°45'0 0.0
2015-Mar-22 14:30N 38°59' E 117°45'0 0.0
2015-Mar-22 13:24N 38°59' E 117°45'0 0.0
2015-Mar-22 12:18N 38°59' E 117°45'0 0.0
2015-Mar-22 11:30N 38°59' E 117°45'0 0.0
2015-Mar-22 10:22N 38°59' E 117°45'0 0.0
2015-Mar-22 09:22N 38°59' E 117°45'0 0.0
2015-Mar-22 08:22N 38°59' E 117°45'0 0.0
2015-Mar-22 07:28N 38°59' E 117°45'1 1.0
2015-Mar-22 06:33N 38°59' E 117°46'13 3.1
2015-Mar-22 02:22N 38°58' E 118°02'  
2015-Mar-14 05:32N 35°00' E 139°31'1111.2
2015-Mar-14 04:33N 35°07' E 139°41'  

Dump ship's entire track history